createdAt,value
2023-05-09T00:00:36.555Z,84
2023-05-09T00:01:43.627Z,84
2023-05-09T00:02:50.800Z,84
2023-05-09T00:03:57.884Z,84
2023-05-09T00:05:04.987Z,85
2023-05-09T00:06:11.492Z,85
2023-05-09T00:07:18.672Z,85
2023-05-09T00:08:25.739Z,85
2023-05-09T00:09:32.826Z,85
2023-05-09T00:10:39.962Z,85
2023-05-09T00:11:46.549Z,85
2023-05-09T00:12:53.739Z,85
2023-05-09T00:14:00.722Z,85
2023-05-09T00:15:07.879Z,85
2023-05-09T00:16:14.972Z,85
2023-05-09T00:17:22.126Z,85
2023-05-09T00:18:28.620Z,85
2023-05-09T00:20:42.822Z,85
2023-05-09T00:21:49.982Z,85
2023-05-09T00:22:56.562Z,85
2023-05-09T00:24:03.600Z,86
2023-05-09T00:25:10.722Z,86
2023-05-09T00:26:17.905Z,86
2023-05-09T00:27:24.409Z,85
2023-05-09T00:28:31.586Z,86
2023-05-09T00:29:38.808Z,86
2023-05-09T00:30:45.799Z,86
2023-05-09T00:31:52.882Z,86
2023-05-09T00:34:06.541Z,86
2023-05-09T00:35:13.864Z,86
2023-05-09T00:36:20.753Z,86
2023-05-09T00:37:27.902Z,86
2023-05-09T00:38:34.515Z,86
2023-05-09T00:39:41.537Z,86
2023-05-09T00:40:48.818Z,86
2023-05-09T00:41:55.782Z,86
2023-05-09T00:43:02.860Z,86
2023-05-09T00:44:10.229Z,86
2023-05-09T00:45:21.434Z,86
2023-05-09T00:46:23.739Z,86
2023-05-09T00:47:30.759Z,86
2023-05-09T00:48:37.882Z,86
2023-05-09T00:49:44.986Z,86
2023-05-09T00:50:53.856Z,86
2023-05-09T00:51:58.733Z,86
2023-05-09T00:53:05.794Z,87
2023-05-09T00:54:12.973Z,87
2023-05-09T00:55:19.449Z,87
2023-05-09T00:56:26.573Z,87
2023-05-09T00:57:33.714Z,87
2023-05-09T00:58:40.790Z,87
2023-05-09T00:59:47.885Z,87
2023-05-09T01:00:55.043Z,87
2023-05-09T01:02:01.561Z,87
2023-05-09T01:03:08.900Z,87
2023-05-09T01:04:15.839Z,87
2023-05-09T01:05:22.875Z,87
2023-05-09T01:06:30.023Z,87
2023-05-09T01:07:36.632Z,87
2023-05-09T01:08:44.321Z,87
2023-05-09T01:09:50.792Z,87
2023-05-09T01:10:57.917Z,87
2023-05-09T01:12:05.019Z,87
2023-05-09T01:13:11.652Z,87
2023-05-09T01:14:18.769Z,87
2023-05-09T01:15:25.841Z,87
2023-05-09T01:16:32.890Z,87
2023-05-09T01:17:39.581Z,87
2023-05-09T01:18:46.633Z,87
2023-05-09T01:19:54.241Z,87
2023-05-09T01:21:00.826Z,87
2023-05-09T01:22:07.970Z,87
2023-05-09T01:24:21.627Z,87
2023-05-09T01:25:28.685Z,88
2023-05-09T01:26:35.856Z,88
2023-05-09T01:27:42.945Z,88
2023-05-09T01:28:49.529Z,88
2023-05-09T01:29:56.641Z,88
2023-05-09T01:31:03.747Z,88
2023-05-09T01:32:12.650Z,88
2023-05-09T01:33:17.954Z,88
2023-05-09T01:34:24.595Z,88
2023-05-09T01:35:31.641Z,88
2023-05-09T01:36:38.762Z,88
2023-05-09T01:37:45.841Z,88
2023-05-09T01:38:52.905Z,88
2023-05-09T01:39:59.556Z,88
2023-05-09T01:41:06.637Z,88
2023-05-09T01:42:13.707Z,88
2023-05-09T01:43:20.891Z,88
2023-05-09T01:44:27.956Z,88
2023-05-09T01:45:34.521Z,88
2023-05-09T01:46:41.623Z,88
2023-05-09T01:47:49.002Z,88
2023-05-09T01:48:55.881Z,88
2023-05-09T01:50:02.961Z,88
2023-05-09T01:51:09.544Z,88
2023-05-09T01:52:16.708Z,89
2023-05-09T01:53:23.787Z,89
2023-05-09T01:54:30.892Z,89
2023-05-09T01:55:37.991Z,89
2023-05-09T01:56:44.585Z,89
2023-05-09T01:57:51.644Z,89
2023-05-09T01:58:58.795Z,89
2023-05-09T02:00:06.973Z,89
2023-05-09T02:01:13.045Z,89
2023-05-09T02:02:19.607Z,89
2023-05-09T02:03:26.721Z,89
2023-05-09T02:04:33.780Z,89
2023-05-09T02:05:40.881Z,90
2023-05-09T02:06:47.972Z,90
2023-05-09T02:07:54.563Z,90
2023-05-09T02:09:01.662Z,90
2023-05-09T02:10:08.806Z,90
2023-05-09T02:12:23.003Z,90
2023-05-09T02:13:29.647Z,90
2023-05-09T02:14:36.714Z,90
2023-05-09T02:15:43.893Z,90
2023-05-09T02:16:50.861Z,90
2023-05-09T02:17:57.538Z,90
2023-05-09T02:19:04.578Z,90
2023-05-09T02:20:11.676Z,90
2023-05-09T02:21:18.828Z,90
2023-05-09T02:22:25.971Z,91
2023-05-09T02:23:32.445Z,91
2023-05-09T02:24:39.584Z,91
2023-05-09T02:25:46.716Z,91
2023-05-09T02:28:00.870Z,91
2023-05-09T02:29:07.489Z,91
2023-05-09T02:30:14.600Z,91
2023-05-09T02:31:21.697Z,91
2023-05-09T02:32:28.846Z,91
2023-05-09T02:33:35.920Z,91
2023-05-09T02:34:43.042Z,91
2023-05-09T02:35:49.630Z,91
2023-05-09T02:36:56.776Z,91
2023-05-09T02:38:03.905Z,91
2023-05-09T02:39:10.952Z,91
2023-05-09T02:40:17.496Z,91
2023-05-09T02:41:24.731Z,91
2023-05-09T02:42:31.673Z,91
2023-05-09T02:43:38.860Z,91
2023-05-09T02:44:45.980Z,91
2023-05-09T02:45:52.541Z,91
2023-05-09T02:46:59.625Z,91
2023-05-09T02:48:09.003Z,91
2023-05-09T02:49:22.752Z,91
2023-05-09T02:50:20.940Z,91
2023-05-09T02:51:27.542Z,91
2023-05-09T02:52:34.734Z,92
2023-05-09T02:53:41.831Z,91
2023-05-09T02:54:48.856Z,91
2023-05-09T02:55:55.963Z,92
2023-05-09T02:57:02.523Z,91
2023-05-09T02:58:13.604Z,91
2023-05-09T02:59:16.723Z,91
2023-05-09T03:00:23.828Z,91
2023-05-09T03:01:30.931Z,91
2023-05-09T03:02:37.798Z,91
2023-05-09T03:03:44.762Z,91
2023-05-09T03:04:51.727Z,91
2023-05-09T03:05:58.899Z,91
2023-05-09T03:07:05.997Z,91
2023-05-09T03:08:12.526Z,92
2023-05-09T03:09:19.689Z,91
2023-05-09T03:10:26.786Z,91
2023-05-09T03:11:33.862Z,91
2023-05-09T03:12:40.997Z,91
2023-05-09T03:13:47.585Z,91
2023-05-09T03:14:54.678Z,91
2023-05-09T03:16:01.850Z,91
2023-05-09T03:17:08.888Z,91
2023-05-09T03:18:15.948Z,91
2023-05-09T03:19:22.611Z,91
2023-05-09T03:20:29.728Z,91
2023-05-09T03:21:36.785Z,91
2023-05-09T03:22:43.871Z,91
2023-05-09T03:23:51.020Z,91
2023-05-09T03:24:57.566Z,91
2023-05-09T03:26:04.725Z,91
2023-05-09T03:27:11.759Z,91
2023-05-09T03:28:18.896Z,91
2023-05-09T03:29:25.517Z,91
2023-05-09T03:31:39.768Z,91
2023-05-09T03:32:46.919Z,91
2023-05-09T03:33:53.908Z,91
2023-05-09T03:35:00.480Z,91
2023-05-09T03:36:07.597Z,91
2023-05-09T03:37:14.726Z,91
2023-05-09T03:38:21.794Z,91
2023-05-09T03:40:35.619Z,91
2023-05-09T03:41:42.601Z,91
2023-05-09T03:42:49.704Z,91
2023-05-09T03:43:56.778Z,91
2023-05-09T03:45:03.897Z,90
2023-05-09T03:46:11.083Z,90
2023-05-09T03:47:17.587Z,90
2023-05-09T03:48:24.735Z,91
2023-05-09T03:49:32.340Z,90
2023-05-09T03:50:38.922Z,90
2023-05-09T03:51:45.633Z,90
2023-05-09T03:52:52.626Z,90
2023-05-09T03:53:59.735Z,90
2023-05-09T03:55:06.781Z,90
2023-05-09T03:56:13.911Z,90
2023-05-09T03:57:20.469Z,90
2023-05-09T03:58:27.656Z,90
2023-05-09T03:59:34.803Z,90
2023-05-09T04:00:41.837Z,90
2023-05-09T04:01:49.010Z,90
2023-05-09T04:02:55.657Z,90
2023-05-09T04:04:02.631Z,90
2023-05-09T04:05:09.754Z,90
2023-05-09T04:06:16.952Z,90
2023-05-09T04:07:23.889Z,89
2023-05-09T04:08:30.517Z,90
2023-05-09T04:09:37.594Z,90
2023-05-09T04:10:45.001Z,89
2023-05-09T04:11:51.846Z,89
2023-05-09T04:12:59.025Z,89
2023-05-09T04:14:05.605Z,89
2023-05-09T04:15:12.805Z,89
2023-05-09T04:16:20.302Z,89
2023-05-09T04:17:26.397Z,89
2023-05-09T04:18:33.939Z,89
2023-05-09T04:19:40.707Z,89
2023-05-09T04:20:47.644Z,89
2023-05-09T04:21:54.778Z,89
2023-05-09T04:23:01.824Z,89
2023-05-09T04:24:09.027Z,89
2023-05-09T04:25:15.697Z,89
2023-05-09T04:26:22.720Z,89
2023-05-09T04:27:29.771Z,89
2023-05-09T04:28:36.858Z,89
2023-05-09T04:29:43.959Z,89
2023-05-09T04:30:50.577Z,89
2023-05-09T04:31:57.751Z,89
2023-05-09T04:33:04.870Z,89
2023-05-09T04:35:20.705Z,88
2023-05-09T04:36:25.615Z,88
2023-05-09T04:37:32.718Z,88
2023-05-09T04:38:39.774Z,88
2023-05-09T04:39:46.894Z,88
2023-05-09T04:40:53.945Z,88
2023-05-09T04:42:00.601Z,88
2023-05-09T04:43:07.842Z,88
2023-05-09T04:44:14.225Z,88
2023-05-09T04:45:21.887Z,88
2023-05-09T04:46:28.509Z,88
2023-05-09T04:47:35.662Z,88
2023-05-09T04:48:42.710Z,88
2023-05-09T04:49:49.853Z,88
2023-05-09T04:50:56.906Z,88
2023-05-09T04:52:03.488Z,88
2023-05-09T04:53:10.592Z,88
2023-05-09T04:54:17.737Z,88
2023-05-09T04:55:24.836Z,88
2023-05-09T04:56:31.905Z,88
2023-05-09T04:57:39.029Z,88
2023-05-09T04:58:45.634Z,87
2023-05-09T04:59:52.667Z,87
2023-05-09T05:00:59.833Z,87
2023-05-09T05:02:06.975Z,87
2023-05-09T05:03:13.512Z,87
2023-05-09T05:04:20.593Z,87
2023-05-09T05:05:28.014Z,87
2023-05-09T05:06:34.820Z,87
2023-05-09T05:08:48.628Z,87
2023-05-09T05:09:55.684Z,87
2023-05-09T05:11:02.694Z,87
2023-05-09T05:12:12.756Z,87
2023-05-09T05:13:16.952Z,87
2023-05-09T05:14:23.506Z,87
2023-05-09T05:15:30.632Z,87
2023-05-09T05:16:37.762Z,87
2023-05-09T05:17:44.873Z,87
2023-05-09T05:18:51.906Z,87
2023-05-09T05:19:58.547Z,87
2023-05-09T05:21:05.679Z,87
2023-05-09T05:22:12.700Z,87
2023-05-09T05:23:19.853Z,87
2023-05-09T05:24:27.001Z,87
2023-05-09T05:25:33.577Z,87
2023-05-09T05:26:40.624Z,87
2023-05-09T05:27:47.745Z,87
2023-05-09T05:28:54.824Z,87
2023-05-09T05:30:02.018Z,87
2023-05-09T05:31:08.599Z,87
2023-05-09T05:32:15.644Z,87
2023-05-09T05:33:22.762Z,87
2023-05-09T05:34:29.811Z,87
2023-05-09T05:35:36.945Z,87
2023-05-09T05:36:43.567Z,87
2023-05-09T05:38:57.758Z,87
2023-05-09T05:40:04.368Z,87
2023-05-09T05:41:11.964Z,87
2023-05-09T05:42:18.500Z,87
2023-05-09T05:45:39.879Z,87
2023-05-09T05:59:03.607Z,87
2023-05-09T06:00:10.667Z,87
2023-05-09T06:01:17.802Z,87
2023-05-09T06:02:25.012Z,87
2023-05-09T06:03:31.543Z,87
2023-05-09T06:04:38.618Z,87
2023-05-09T06:05:45.714Z,87
2023-05-09T06:07:59.872Z,87
2023-05-09T06:09:07.076Z,87
2023-05-09T06:10:13.643Z,87
2023-05-09T06:11:20.700Z,87
2023-05-09T06:12:28.128Z,88
2023-05-09T06:13:34.903Z,87
2023-05-09T06:14:41.458Z,87
2023-05-09T06:15:48.687Z,87
2023-05-09T06:16:55.756Z,87
2023-05-09T06:18:02.794Z,87
2023-05-09T06:19:09.933Z,87
2023-05-09T06:20:16.513Z,87
2023-05-09T06:21:23.096Z,87
2023-05-09T06:22:30.667Z,87
2023-05-09T06:23:40.517Z,87
2023-05-09T06:24:44.909Z,87
2023-05-09T06:25:51.484Z,87
2023-05-09T06:26:58.626Z,87
2023-05-09T06:28:05.740Z,87
2023-05-09T06:29:12.823Z,87
2023-05-09T06:30:26.104Z,87
2023-05-09T06:31:27.088Z,87
2023-05-09T06:32:33.729Z,87
2023-05-09T06:33:40.690Z,87
2023-05-09T06:34:47.860Z,87
2023-05-09T06:37:01.476Z,87
2023-05-09T06:38:08.614Z,87
2023-05-09T06:39:15.737Z,87
2023-05-09T06:40:22.844Z,87
2023-05-09T06:42:36.559Z,87
2023-05-09T06:43:43.687Z,87
2023-05-09T06:44:50.818Z,87
2023-05-09T06:45:57.909Z,87
2023-05-09T06:47:04.966Z,87
2023-05-09T06:48:11.488Z,87
2023-05-09T06:49:18.660Z,87
2023-05-09T06:50:25.764Z,87
2023-05-09T06:51:32.835Z,87
2023-05-09T06:52:39.978Z,87
2023-05-09T06:53:46.572Z,87
2023-05-09T06:54:53.622Z,87
2023-05-09T06:56:00.704Z,87
2023-05-09T06:57:07.882Z,87
2023-05-09T06:58:14.994Z,87
2023-05-09T06:59:21.569Z,87
2023-05-09T07:00:29.218Z,87
2023-05-09T07:01:35.816Z,87
2023-05-09T07:02:42.675Z,87
2023-05-09T07:03:49.477Z,87
2023-05-09T07:04:56.659Z,87
2023-05-09T07:06:03.629Z,87
2023-05-09T07:07:10.736Z,87
2023-05-09T07:08:17.881Z,87
2023-05-09T07:09:24.539Z,87
2023-05-09T07:10:31.534Z,87
2023-05-09T07:11:38.686Z,87
2023-05-09T07:12:45.840Z,87
2023-05-09T07:13:52.888Z,86
2023-05-09T07:14:59.501Z,87
2023-05-09T07:16:06.678Z,87
2023-05-09T07:17:22.702Z,87
2023-05-09T07:18:20.771Z,87
2023-05-09T07:19:27.922Z,87
2023-05-09T07:20:34.984Z,87
2023-05-09T07:21:41.600Z,87
2023-05-09T07:22:48.796Z,87
2023-05-09T07:23:55.776Z,87
2023-05-09T07:25:02.925Z,87
2023-05-09T07:26:09.496Z,87
2023-05-09T07:27:16.606Z,87
2023-05-09T07:28:23.744Z,87
2023-05-09T07:29:30.772Z,87
2023-05-09T07:30:37.920Z,87
2023-05-09T07:31:44.561Z,87
2023-05-09T07:32:51.577Z,87
2023-05-09T07:33:58.222Z,87
2023-05-09T07:33:58.725Z,87
2023-05-09T07:35:05.800Z,87
2023-05-09T07:36:12.370Z,87
2023-05-09T07:37:19.530Z,87
2023-05-09T07:38:26.593Z,87
2023-05-09T07:39:33.746Z,87
2023-05-09T07:40:40.772Z,87
2023-05-09T07:41:48.838Z,87
2023-05-09T07:42:55.127Z,87
2023-05-09T07:44:01.117Z,87
2023-05-09T07:46:15.889Z,87
2023-05-09T07:47:22.963Z,87
2023-05-09T07:48:29.520Z,87
2023-05-09T07:49:36.636Z,87
2023-05-09T07:50:43.680Z,87
2023-05-09T07:51:50.791Z,87
2023-05-09T07:52:57.913Z,87
2023-05-09T07:54:04.497Z,87
2023-05-09T07:55:11.621Z,87
2023-05-09T07:56:18.747Z,87
2023-05-09T07:57:25.810Z,87
2023-05-09T07:58:32.903Z,87
2023-05-09T07:59:39.571Z,87
2023-05-09T08:00:46.633Z,87
2023-05-09T08:01:53.694Z,87
2023-05-09T08:03:01.297Z,87
2023-05-09T08:04:08.544Z,87
2023-05-09T08:05:14.692Z,87
2023-05-09T08:06:21.598Z,87
2023-05-09T08:07:28.778Z,87
2023-05-09T08:08:38.289Z,87
2023-05-09T08:09:42.390Z,87
2023-05-09T08:10:49.531Z,87
2023-05-09T08:11:56.617Z,87
2023-05-09T08:13:03.790Z,87
2023-05-09T08:14:10.341Z,87
2023-05-09T08:14:10.829Z,87
2023-05-09T08:15:17.787Z,87
2023-05-09T08:16:24.693Z,87
2023-05-09T08:17:31.622Z,87
2023-05-09T08:18:38.229Z,87
2023-05-09T08:18:38.764Z,87
2023-05-09T08:19:46.119Z,86
2023-05-09T08:20:52.446Z,86
2023-05-09T08:21:59.564Z,86
2023-05-09T08:23:06.203Z,86
2023-05-09T08:23:06.664Z,86
2023-05-09T08:24:13.760Z,86
2023-05-09T08:26:27.554Z,85
2023-05-09T08:27:34.543Z,85
2023-05-09T08:27:34.571Z,85
2023-05-09T08:28:41.669Z,86
2023-05-09T08:29:48.815Z,86
2023-05-09T08:30:55.909Z,86
2023-05-09T08:32:02.430Z,85
2023-05-09T08:32:02.486Z,85
2023-05-09T08:33:09.616Z,85
2023-05-09T08:34:16.653Z,84
2023-05-09T08:35:23.813Z,84
2023-05-09T08:36:30.386Z,83
2023-05-09T08:37:37.528Z,83
2023-05-09T08:38:44.575Z,84
2023-05-09T08:39:51.670Z,84
2023-05-09T08:40:58.821Z,84
2023-05-09T08:42:05.924Z,84
2023-05-09T08:43:12.480Z,84
2023-05-09T08:45:26.799Z,83
2023-05-09T08:46:33.813Z,83
2023-05-09T08:47:40.928Z,83
2023-05-09T08:48:47.458Z,83
2023-05-09T08:49:54.865Z,82
2023-05-09T08:49:54.874Z,82
2023-05-09T08:51:01.686Z,82
2023-05-09T08:52:08.802Z,82
2023-05-09T08:53:15.941Z,82
2023-05-09T08:54:22.962Z,82
2023-05-09T08:55:29.629Z,82
2023-05-09T08:56:36.692Z,82
2023-05-09T08:57:43.794Z,82
2023-05-09T08:58:50.902Z,82
2023-05-09T08:59:57.521Z,82
2023-05-09T09:01:04.563Z,82
2023-05-09T09:02:13.032Z,82
2023-05-09T09:03:18.303Z,81
2023-05-09T09:03:18.800Z,81
2023-05-09T09:04:25.450Z,81
2023-05-09T09:05:41.276Z,80
2023-05-09T09:07:47.357Z,81
2023-05-09T09:08:53.808Z,81
2023-05-09T09:10:00.910Z,81
2023-05-09T09:11:07.507Z,81
2023-05-09T09:12:14.612Z,81
2023-05-09T09:13:21.780Z,81
2023-05-09T09:14:28.851Z,80
2023-05-09T09:15:36.044Z,79
2023-05-09T09:16:42.541Z,79
2023-05-09T09:16:42.674Z,79
2023-05-09T09:17:49.676Z,78
2023-05-09T09:18:58.604Z,79
2023-05-09T09:20:03.797Z,79
2023-05-09T09:21:10.401Z,79
2023-05-09T09:22:17.648Z,79
2023-05-09T09:23:24.616Z,79
2023-05-09T09:24:31.855Z,78
2023-05-09T09:25:38.835Z,78
2023-05-09T09:26:45.431Z,78
2023-05-09T09:27:54.025Z,78
2023-05-09T09:28:59.669Z,78
2023-05-09T09:30:06.742Z,78
2023-05-09T09:31:15.393Z,77
2023-05-09T09:32:20.442Z,77
2023-05-09T09:33:27.552Z,77
2023-05-09T09:34:34.102Z,77
2023-05-09T09:34:34.647Z,77
2023-05-09T09:35:41.774Z,76
2023-05-09T09:36:48.842Z,76
2023-05-09T09:37:55.450Z,76
2023-05-09T09:39:02.024Z,76
2023-05-09T09:39:02.525Z,76
2023-05-09T09:40:09.670Z,77
2023-05-09T09:41:16.787Z,77
2023-05-09T09:42:23.838Z,77
2023-05-09T09:43:30.445Z,77
2023-05-09T09:43:30.470Z,77
2023-05-09T09:44:37.568Z,77
2023-05-09T09:45:44.686Z,77
2023-05-09T09:46:51.876Z,77
2023-05-09T09:49:10.761Z,76
2023-05-09T09:50:15.302Z,76
2023-05-09T09:51:19.701Z,76
2023-05-09T09:52:26.836Z,76
2023-05-09T09:53:33.875Z,76
2023-05-09T09:54:40.466Z,76
2023-05-09T09:55:47.687Z,75
2023-05-09T09:56:54.108Z,75
2023-05-09T09:56:54.948Z,75
2023-05-09T09:58:01.755Z,75
2023-05-09T09:59:08.848Z,75
2023-05-09T10:00:15.670Z,75
2023-05-09T10:01:23.628Z,75
2023-05-09T10:02:29.697Z,75
2023-05-09T10:03:36.789Z,75
2023-05-09T10:04:43.977Z,74
2023-05-09T10:05:50.474Z,74
2023-05-09T10:08:04.699Z,74
2023-05-09T10:10:19.076Z,73
2023-05-09T10:11:26.501Z,73
2023-05-09T10:12:32.576Z,73
2023-05-09T10:13:39.697Z,73
2023-05-09T10:14:46.781Z,72
2023-05-09T10:15:54.220Z,72
2023-05-09T10:17:00.540Z,72
2023-05-09T10:18:07.782Z,72
2023-05-09T10:19:14.735Z,72
2023-05-09T10:20:21.835Z,72
2023-05-09T10:21:29.395Z,72
2023-05-09T10:22:35.511Z,72
2023-05-09T10:23:42.597Z,72
2023-05-09T10:24:49.697Z,71
2023-05-09T10:25:56.817Z,71
2023-05-09T10:27:03.376Z,71
2023-05-09T10:28:10.481Z,71
2023-05-09T10:28:10.514Z,71
2023-05-09T10:30:25.738Z,71
2023-05-09T10:31:32.843Z,71
2023-05-09T10:32:38.476Z,71
2023-05-09T10:33:45.550Z,71
2023-05-09T10:34:52.586Z,71
2023-05-09T10:35:59.758Z,71
2023-05-09T10:37:06.933Z,71
2023-05-09T10:37:06.938Z,71
2023-05-09T10:38:13.422Z,71
2023-05-09T10:39:20.483Z,71
2023-05-09T10:40:27.680Z,71
2023-05-09T10:41:34.896Z,71
2023-05-09T10:42:41.805Z,71
2023-05-09T10:43:48.465Z,71
2023-05-09T10:44:55.597Z,71
2023-05-09T10:46:02.085Z,70
2023-05-09T10:46:02.605Z,70
2023-05-09T10:47:10.424Z,70
2023-05-09T10:48:16.841Z,70
2023-05-09T10:49:23.450Z,70
2023-05-09T10:50:30.506Z,70
2023-05-09T10:51:37.646Z,70
2023-05-09T10:52:44.755Z,70
2023-05-09T10:53:51.827Z,70
2023-05-09T10:54:58.436Z,70
2023-05-09T10:54:58.475Z,70
2023-05-09T10:56:05.576Z,70
2023-05-09T10:57:12.608Z,70
2023-05-09T10:58:19.816Z,70
2023-05-09T10:59:27.381Z,70
2023-05-09T10:59:27.406Z,70
2023-05-09T11:00:33.551Z,70
2023-05-09T11:01:40.616Z,71
2023-05-09T11:02:47.751Z,71
2023-05-09T11:03:54.222Z,71
2023-05-09T11:03:54.805Z,71
2023-05-09T11:05:01.841Z,71
2023-05-09T11:06:08.462Z,71
2023-05-09T11:07:18.414Z,70
2023-05-09T11:08:22.643Z,70
2023-05-09T11:08:22.684Z,70
2023-05-09T11:09:30.826Z,70
2023-05-09T11:10:36.337Z,70
2023-05-09T11:11:43.534Z,70
2023-05-09T11:12:50.088Z,70
2023-05-09T11:12:50.602Z,70
2023-05-09T11:13:57.674Z,70
2023-05-09T11:15:05.405Z,70
2023-05-09T11:16:11.432Z,70
2023-05-09T11:17:18.457Z,70
2023-05-09T11:17:18.513Z,70
2023-05-09T11:18:26.601Z,70
2023-05-09T11:19:32.638Z,70
2023-05-09T11:20:39.835Z,70
2023-05-09T11:21:46.378Z,70
2023-05-09T11:21:46.425Z,70
2023-05-09T11:22:53.460Z,69
2023-05-09T11:24:00.556Z,70
2023-05-09T11:25:07.709Z,70
2023-05-09T11:26:14.243Z,70
2023-05-09T11:26:14.775Z,70
2023-05-09T11:27:21.367Z,70
2023-05-09T11:28:28.487Z,70
2023-05-09T11:29:35.595Z,70
2023-05-09T11:30:42.161Z,70
2023-05-09T11:30:52.093Z,70
2023-05-09T11:31:49.830Z,70
2023-05-09T11:32:56.494Z,70
2023-05-09T11:34:03.480Z,69
2023-05-09T11:35:10.281Z,70
2023-05-09T11:35:10.564Z,70
2023-05-09T11:36:17.703Z,70
2023-05-09T11:38:33.143Z,70
2023-05-09T11:39:38.595Z,70
2023-05-09T11:39:39.515Z,70
2023-05-09T11:40:45.638Z,70
2023-05-09T11:41:52.709Z,70
2023-05-09T11:42:59.807Z,70
2023-05-09T11:44:06.399Z,70
2023-05-09T11:44:06.451Z,70
2023-05-09T11:45:13.932Z,70
2023-05-09T11:48:34.254Z,70
2023-05-09T11:48:34.827Z,70
2023-05-09T11:53:02.742Z,70
2023-05-09T11:54:09.910Z,71
2023-05-09T11:55:16.662Z,71
2023-05-09T11:59:44.955Z,71
2023-05-09T12:00:51.415Z,71
2023-05-09T12:01:58.534Z,71
2023-05-09T12:03:05.657Z,71
2023-05-09T12:04:12.825Z,72
2023-05-09T12:05:19.923Z,71
2023-05-09T12:06:26.415Z,71
2023-05-09T12:06:27.447Z,71
2023-05-09T12:07:34.517Z,71
2023-05-09T12:08:40.623Z,71
2023-05-09T12:09:47.745Z,71
2023-05-09T12:10:54.353Z,71
2023-05-09T12:12:01.425Z,71
2023-05-09T12:13:08.636Z,71
2023-05-09T12:14:15.608Z,72
2023-05-09T12:15:22.486Z,72
2023-05-09T12:15:22.736Z,72
2023-05-09T12:16:29.414Z,72
2023-05-09T12:17:36.481Z,72
2023-05-09T12:18:44.037Z,72
2023-05-09T12:19:50.614Z,72
2023-05-09T12:20:57.778Z,72
2023-05-09T12:22:04.306Z,72
2023-05-09T12:23:11.402Z,72
2023-05-09T12:24:18.038Z,72
2023-05-09T12:24:18.560Z,72
2023-05-09T12:25:25.666Z,72
2023-05-09T12:26:33.733Z,72
2023-05-09T12:27:39.360Z,72
2023-05-09T12:28:45.944Z,72
2023-05-09T12:28:46.477Z,72
2023-05-09T12:29:55.012Z,71
2023-05-09T12:31:00.679Z,71
2023-05-09T12:32:07.782Z,72
2023-05-09T12:34:21.431Z,72
2023-05-09T12:35:28.541Z,72
2023-05-09T12:36:35.807Z,71
2023-05-09T12:37:42.248Z,71
2023-05-09T12:37:42.761Z,71
2023-05-09T12:38:49.353Z,71
2023-05-09T12:39:56.435Z,71
2023-05-09T12:41:03.929Z,71
2023-05-09T12:42:13.016Z,71
2023-05-09T12:42:13.045Z,71
2023-05-09T12:43:17.806Z,71
2023-05-09T12:44:24.366Z,71
2023-05-09T12:45:31.521Z,71
2023-05-09T12:46:38.112Z,71
2023-05-09T12:46:38.620Z,71
2023-05-09T12:47:45.846Z,71
2023-05-09T12:48:52.260Z,71
2023-05-09T12:48:52.767Z,71
2023-05-09T12:49:59.395Z,71
2023-05-09T12:51:06.132Z,71
2023-05-09T12:51:06.483Z,71
2023-05-09T12:52:13.572Z,71
2023-05-09T12:53:20.719Z,71
2023-05-09T12:54:28.845Z,71
2023-05-09T12:55:34.340Z,71
2023-05-09T12:56:41.451Z,72
2023-05-09T12:57:48.612Z,72
2023-05-09T12:58:55.731Z,71
2023-05-09T13:00:02.265Z,71
2023-05-09T13:00:02.801Z,71
2023-05-09T13:01:09.434Z,71
2023-05-09T13:02:16.636Z,72
2023-05-09T13:03:24.648Z,71
2023-05-09T13:04:30.243Z,71
2023-05-09T13:04:30.739Z,71
2023-05-09T13:06:44.409Z,72
2023-05-09T13:07:51.529Z,71
2023-05-09T13:08:58.093Z,71
2023-05-09T13:08:58.612Z,71
2023-05-09T13:10:05.798Z,71
2023-05-09T13:11:16.651Z,72
2023-05-09T13:12:19.402Z,71
2023-05-09T13:13:27.640Z,71
2023-05-09T13:15:40.820Z,71
2023-05-09T13:16:47.955Z,71
2023-05-09T13:17:53.980Z,71
2023-05-09T13:17:54.432Z,71
2023-05-09T13:19:01.521Z,72
2023-05-09T13:20:08.659Z,71
2023-05-09T13:21:15.750Z,71
2023-05-09T13:22:24.348Z,71
2023-05-09T13:23:30.461Z,71
2023-05-09T13:24:36.541Z,71
2023-05-09T13:25:43.608Z,71
2023-05-09T13:26:50.244Z,71
2023-05-09T13:26:50.707Z,71
2023-05-09T13:27:57.445Z,71
2023-05-09T13:29:04.445Z,71
2023-05-09T13:30:11.554Z,71
2023-05-09T13:31:18.791Z,71
2023-05-09T13:32:25.783Z,71
2023-05-09T13:33:32.426Z,72
2023-05-09T13:34:39.435Z,72
2023-05-09T13:35:47.772Z,72
2023-05-09T13:35:47.808Z,72
2023-05-09T13:36:53.655Z,72
2023-05-09T13:38:00.753Z,72
2023-05-09T13:39:07.359Z,71
2023-05-09T13:40:14.568Z,72
2023-05-09T13:41:21.600Z,72
2023-05-09T13:42:28.646Z,72
2023-05-09T13:43:36.801Z,72
2023-05-09T13:44:42.313Z,71
2023-05-09T13:44:42.341Z,71
2023-05-09T13:45:49.492Z,71
2023-05-09T13:46:56.571Z,71
2023-05-09T13:48:03.722Z,71
2023-05-09T13:49:10.778Z,71
2023-05-09T13:50:17.637Z,71
2023-05-09T13:51:24.451Z,71
2023-05-09T13:52:31.565Z,71
2023-05-09T13:53:39.241Z,71
2023-05-09T13:53:39.252Z,71
2023-05-09T13:54:45.735Z,71
2023-05-09T13:56:59.499Z,71
2023-05-09T13:58:06.605Z,71
2023-05-09T13:59:13.648Z,71
2023-05-09T14:00:21.087Z,71
2023-05-09T14:01:28.490Z,71
2023-05-09T14:02:34.527Z,71
2023-05-09T14:02:34.563Z,71
2023-05-09T14:03:41.622Z,71
2023-05-09T14:04:48.660Z,71
2023-05-09T14:05:55.812Z,71
2023-05-09T14:07:02.338Z,72
2023-05-09T14:08:09.505Z,72
2023-05-09T14:09:16.613Z,71
2023-05-09T14:10:24.675Z,71
2023-05-09T14:11:31.862Z,71
2023-05-09T14:12:37.377Z,71
2023-05-09T14:13:44.467Z,71
2023-05-09T14:14:51.560Z,71
2023-05-09T14:15:58.853Z,71
2023-05-09T14:17:05.821Z,71
2023-05-09T14:18:15.948Z,71
2023-05-09T14:19:19.498Z,71
2023-05-09T14:20:27.062Z,71
2023-05-09T14:21:33.702Z,71
2023-05-09T14:22:40.303Z,71
2023-05-09T14:23:47.422Z,71
2023-05-09T14:24:54.502Z,72
2023-05-09T14:26:02.139Z,72
2023-05-09T14:27:08.705Z,72
2023-05-09T14:28:15.367Z,72
2023-05-09T14:29:22.411Z,72
2023-05-09T14:30:30.573Z,71
2023-05-09T14:31:37.706Z,71
2023-05-09T14:32:43.739Z,71
2023-05-09T14:34:57.422Z,71
2023-05-09T14:36:04.526Z,71
2023-05-09T14:38:18.736Z,71
2023-05-09T14:39:25.348Z,71
2023-05-09T14:40:32.380Z,71
2023-05-09T14:41:39.672Z,71
2023-05-09T14:42:46.608Z,71
2023-05-09T14:43:53.777Z,71
2023-05-09T14:45:00.319Z,71
2023-05-09T14:46:07.495Z,71
2023-05-09T14:47:14.517Z,71
2023-05-09T14:48:21.612Z,71
2023-05-09T14:49:28.796Z,71
2023-05-09T14:50:35.359Z,71
2023-05-09T14:51:42.421Z,71
2023-05-09T14:52:49.577Z,72
2023-05-09T14:53:56.632Z,71
2023-05-09T14:55:03.763Z,71
2023-05-09T14:56:10.376Z,71
2023-05-09T14:57:17.431Z,71
2023-05-09T14:58:25.539Z,71
2023-05-09T14:59:33.668Z,71
2023-05-09T15:00:38.765Z,71
2023-05-09T15:01:45.355Z,71
2023-05-09T15:02:52.410Z,71
2023-05-09T15:03:59.714Z,71
2023-05-09T15:05:06.658Z,71
2023-05-09T15:06:15.484Z,71
2023-05-09T15:07:20.394Z,71
2023-05-09T15:08:27.458Z,71
2023-05-09T15:09:34.609Z,71
2023-05-09T15:10:41.683Z,71
2023-05-09T15:11:49.354Z,71
2023-05-09T15:12:55.520Z,71
2023-05-09T15:14:02.505Z,71
2023-05-09T15:15:09.641Z,71
2023-05-09T15:16:16.840Z,71
2023-05-09T15:17:24.828Z,71
2023-05-09T15:19:37.485Z,71
2023-05-09T15:20:44.648Z,71
2023-05-09T15:21:51.738Z,71
2023-05-09T15:22:58.408Z,71
2023-05-09T15:24:05.464Z,71
2023-05-09T15:25:12.520Z,71
2023-05-09T15:26:19.667Z,71
2023-05-09T15:27:26.677Z,71
2023-05-09T15:28:33.322Z,71
2023-05-09T15:29:40.880Z,71
2023-05-09T15:30:47.500Z,71
2023-05-09T15:31:54.587Z,71
2023-05-09T15:33:01.319Z,71
2023-05-09T15:34:08.356Z,71
2023-05-09T15:35:15.376Z,71
2023-05-09T15:36:22.520Z,71
2023-05-09T15:38:36.193Z,71
2023-05-09T15:39:43.285Z,71
2023-05-09T15:40:50.446Z,71
2023-05-09T15:41:57.058Z,71
2023-05-09T15:41:57.454Z,71
2023-05-09T15:43:06.472Z,71
2023-05-09T15:44:11.216Z,71
2023-05-09T15:44:11.723Z,71
2023-05-09T15:45:18.382Z,71
2023-05-09T15:46:26.578Z,71
2023-05-09T15:47:31.991Z,71
2023-05-09T15:47:33.551Z,71
2023-05-09T15:48:39.601Z,71
2023-05-09T15:49:46.704Z,71
2023-05-09T15:50:53.357Z,71
2023-05-09T15:52:00.471Z,71
2023-05-09T15:53:07.489Z,71
2023-05-09T15:54:14.703Z,72
2023-05-09T15:55:21.299Z,72
2023-05-09T15:56:28.403Z,72